createdAt,value
2019-01-15T00:00:49.594Z,73.03
2019-01-15T00:01:49.575Z,73.76
2019-01-15T00:02:49.596Z,73.55
2019-01-15T00:03:49.568Z,73.66
2019-01-15T00:04:49.554Z,73.55
2019-01-15T00:05:49.547Z,73.55
2019-01-15T00:06:49.535Z,73.45
2019-01-15T00:07:49.527Z,73.86
2019-01-15T00:08:49.511Z,73.86
2019-01-15T00:09:49.528Z,73.97
2019-01-15T00:10:49.480Z,74.18
2019-01-15T00:11:49.470Z,74.29
2019-01-15T00:12:49.477Z,73.94
2019-01-15T00:13:49.451Z,73.52
2019-01-15T00:14:49.446Z,73.52
2019-01-15T00:15:49.438Z,73.63
2019-01-15T00:16:49.416Z,73.52
2019-01-15T00:17:49.420Z,73.52
2019-01-15T00:18:49.398Z,73.83
2019-01-15T00:19:49.389Z,74.15
2019-01-15T00:20:49.399Z,74.04
2019-01-15T00:21:49.403Z,73.63
2019-01-15T00:22:49.370Z,73.52
2019-01-15T00:23:49.345Z,73.83
2019-01-15T00:24:49.336Z,73.52
2019-01-15T00:25:49.339Z,73.94
2019-01-15T00:26:49.314Z,74.35
2019-01-15T00:27:49.400Z,73.83
2019-01-15T00:28:49.291Z,73.80
2019-01-15T00:29:49.284Z,74.25
2019-01-15T00:30:49.269Z,74.35
2019-01-15T00:31:49.260Z,73.63
2019-01-15T00:32:49.250Z,73.83
2019-01-15T00:33:49.255Z,73.83
2019-01-15T00:34:49.236Z,73.38
2019-01-15T00:35:49.220Z,73.90
2019-01-15T00:36:49.211Z,73.52
2019-01-15T00:37:49.200Z,73.83
2019-01-15T00:38:49.198Z,73.80
2019-01-15T00:39:49.179Z,73.49
2019-01-15T00:40:49.181Z,73.83
2019-01-15T00:41:49.157Z,73.49
2019-01-15T00:42:49.144Z,74.21
2019-01-15T00:43:49.146Z,74.43
2019-01-15T00:44:49.123Z,74.11
2019-01-15T00:45:49.113Z,74.32
2019-01-15T00:46:49.106Z,74.11
2019-01-15T00:47:49.096Z,74.11
2019-01-15T00:48:49.097Z,74.11
2019-01-15T00:49:49.072Z,74.35
2019-01-15T00:50:49.060Z,74.43
2019-01-15T00:51:49.056Z,74.46
2019-01-15T00:52:49.041Z,74.53
2019-01-15T00:53:49.043Z,74.35
2019-01-15T00:54:49.021Z,74.43
2019-01-15T00:55:49.013Z,74.46
2019-01-15T00:56:48.996Z,74.46
2019-01-15T00:57:48.991Z,74.43
2019-01-15T00:58:48.993Z,74.46
2019-01-15T00:59:48.970Z,73.69
2019-01-15T01:00:49.006Z,74.46
2019-01-15T01:01:48.945Z,74.35
2019-01-15T01:02:48.935Z,74.15
2019-01-15T01:03:48.946Z,74.25
2019-01-15T01:04:48.916Z,74.15
2019-01-15T01:05:48.907Z,73.73
2019-01-15T01:06:48.900Z,73.52
2019-01-15T01:07:48.881Z,73.69
2019-01-15T01:08:48.889Z,74.35
2019-01-15T01:09:48.872Z,74.15
2019-01-15T01:10:48.857Z,74.35
2019-01-15T01:11:48.846Z,74.35
2019-01-15T01:12:48.838Z,74.35
2019-01-15T01:13:50.412Z,74.25
2019-01-15T01:14:48.808Z,74.01
2019-01-15T01:15:48.801Z,74.04
2019-01-15T01:16:48.800Z,73.94
2019-01-15T01:17:48.776Z,74.15
2019-01-15T01:18:48.779Z,74.21
2019-01-15T01:19:48.758Z,73.83
2019-01-15T01:20:48.749Z,73.49
2019-01-15T01:21:48.739Z,74.04
2019-01-15T01:22:48.725Z,74.15
2019-01-15T01:23:48.733Z,74.15
2019-01-15T01:24:48.703Z,74.35
2019-01-15T01:25:48.692Z,73.49
2019-01-15T01:26:48.685Z,74.46
2019-01-15T01:27:48.671Z,74.46
2019-01-15T01:28:48.671Z,74.25
2019-01-15T01:29:48.650Z,73.49
2019-01-15T01:30:48.638Z,73.83
2019-01-15T01:31:48.633Z,73.80
2019-01-15T01:32:48.622Z,73.83
2019-01-15T01:33:48.619Z,73.52
2019-01-15T01:34:48.598Z,74.25
2019-01-15T01:35:48.587Z,73.83
2019-01-15T01:36:48.581Z,74.35
2019-01-15T01:37:48.628Z,74.66
2019-01-15T01:38:48.572Z,74.35
2019-01-15T01:39:48.551Z,73.94
2019-01-15T01:40:48.535Z,74.15
2019-01-15T01:41:48.543Z,74.35
2019-01-15T01:42:48.516Z,73.80
2019-01-15T01:43:48.533Z,73.69
2019-01-15T01:44:48.491Z,74.11
2019-01-15T01:45:48.483Z,74.01
2019-01-15T01:46:48.477Z,73.49
2019-01-15T01:47:48.461Z,72.97
2019-01-15T01:48:48.452Z,73.07
2019-01-15T01:49:48.533Z,73.07
2019-01-15T01:50:48.489Z,73.18
2019-01-15T01:51:48.426Z,72.45
2019-01-15T01:52:48.439Z,73.18
2019-01-15T01:53:48.397Z,72.97
2019-01-15T01:54:48.399Z,73.18
2019-01-15T01:55:48.377Z,73.38
2019-01-15T01:56:48.367Z,73.59
2019-01-15T01:57:48.368Z,73.52
2019-01-15T01:58:48.346Z,73.80
2019-01-15T01:59:48.351Z,73.21
2019-01-15T02:00:48.324Z,73.69
2019-01-15T02:01:48.317Z,73.59
2019-01-15T02:02:48.332Z,73.73
2019-01-15T02:03:48.295Z,74.04
2019-01-15T02:04:48.298Z,73.32
2019-01-15T02:05:48.271Z,73.63
2019-01-15T02:06:48.262Z,73.94
2019-01-15T02:07:48.255Z,73.52
2019-01-15T02:08:48.245Z,73.52
2019-01-15T02:09:48.253Z,73.83
2019-01-15T02:10:48.225Z,73.83
2019-01-15T02:11:48.209Z,74.04
2019-01-15T02:12:48.202Z,73.73
2019-01-15T02:13:48.186Z,73.52
2019-01-15T02:14:48.195Z,73.52
2019-01-15T02:15:48.171Z,73.94
2019-01-15T02:16:48.163Z,73.52
2019-01-15T02:17:48.144Z,73.52
2019-01-15T02:18:48.134Z,73.52
2019-01-15T02:19:48.136Z,73.80
2019-01-15T02:20:48.122Z,74.04
2019-01-15T02:21:48.103Z,74.01
2019-01-15T02:22:48.093Z,73.49
2019-01-15T02:23:48.083Z,73.49
2019-01-15T02:24:48.083Z,73.28
2019-01-15T02:25:48.060Z,73.18
2019-01-15T02:26:48.052Z,73.07
2019-01-15T02:27:48.052Z,73.28
2019-01-15T02:28:48.030Z,73.49
2019-01-15T02:29:48.031Z,73.03
2019-01-15T02:30:48.010Z,73.46
2019-01-15T02:31:48.004Z,72.83
2019-01-15T02:32:47.995Z,73.28
2019-01-15T02:33:47.977Z,73.25
2019-01-15T02:34:47.985Z,73.03
2019-01-15T02:35:47.956Z,73.03
2019-01-15T02:36:47.955Z,72.72
2019-01-15T02:37:47.942Z,73.35
2019-01-15T02:38:47.924Z,73.03
2019-01-15T02:39:47.925Z,73.25
2019-01-15T02:40:47.906Z,73.46
2019-01-15T02:41:47.892Z,72.62
2019-01-15T02:42:47.890Z,73.11
2019-01-15T02:43:47.879Z,72.90
2019-01-15T02:44:47.875Z,72.28
2019-01-15T02:45:47.855Z,73.00
2019-01-15T02:46:47.840Z,72.59
2019-01-15T02:47:47.828Z,72.41
2019-01-15T02:48:47.822Z,72.49
2019-01-15T02:49:47.825Z,73.00
2019-01-15T02:50:47.801Z,72.62
2019-01-15T02:51:47.793Z,72.59
2019-01-15T02:52:47.779Z,72.38
2019-01-15T02:53:47.769Z,73.32
2019-01-15T02:54:47.774Z,72.52
2019-01-15T02:55:47.774Z,72.49
2019-01-15T02:56:47.737Z,72.59
2019-01-15T02:57:47.755Z,72.80
2019-01-15T02:58:47.716Z,72.49
2019-01-15T02:59:47.718Z,72.90
2019-01-15T03:00:47.696Z,72.59
2019-01-15T03:01:47.715Z,73.14
2019-01-15T03:02:47.677Z,72.62
2019-01-15T03:03:47.663Z,72.38
2019-01-15T03:04:47.662Z,72.52
2019-01-15T03:05:47.651Z,72.52
2019-01-15T03:06:47.633Z,72.93
2019-01-15T03:07:47.629Z,72.72
2019-01-15T03:08:47.612Z,73.35
2019-01-15T03:09:47.651Z,73.14
2019-01-15T03:10:47.590Z,73.46
2019-01-15T03:11:47.582Z,73.90
2019-01-15T03:12:54.828Z,73.59
2019-01-15T03:13:48.617Z,73.90
2019-01-15T03:14:47.555Z,73.69
2019-01-15T03:15:47.571Z,74.01
2019-01-15T03:16:47.530Z,74.46
2019-01-15T03:17:47.520Z,74.32
2019-01-15T03:18:47.822Z,74.98
2019-01-15T03:19:47.501Z,74.98
2019-01-15T03:20:47.496Z,75.09
2019-01-15T03:21:47.481Z,75.40
2019-01-15T03:22:47.464Z,75.60
2019-01-15T03:23:47.454Z,75.81
2019-01-15T03:24:47.445Z,75.81
2019-01-15T03:25:47.450Z,75.85
2019-01-15T03:26:47.443Z,75.64
2019-01-15T03:27:47.417Z,75.95
2019-01-15T03:28:47.401Z,76.16
2019-01-15T03:29:47.397Z,76.47
2019-01-15T03:30:47.417Z,76.23
2019-01-15T03:31:47.368Z,76.37
2019-01-15T03:32:47.447Z,76.37
2019-01-15T03:33:47.387Z,76.37
2019-01-15T03:34:47.336Z,76.47
2019-01-15T03:35:47.346Z,76.57
2019-01-15T03:36:47.326Z,76.37
2019-01-15T03:37:47.303Z,76.68
2019-01-15T03:38:47.314Z,76.78
2019-01-15T03:39:47.281Z,76.78
2019-01-15T03:40:47.284Z,77.20
2019-01-15T03:41:47.262Z,76.89
2019-01-15T03:42:47.258Z,77.20
2019-01-15T03:43:47.242Z,77.10
2019-01-15T03:44:47.240Z,77.31
2019-01-15T03:45:47.240Z,77.20
2019-01-15T03:46:47.211Z,77.20
2019-01-15T03:47:47.200Z,77.41
2019-01-15T03:48:47.196Z,77.51
2019-01-15T03:49:47.184Z,77.41
2019-01-15T03:50:47.196Z,77.37
2019-01-15T03:51:47.158Z,77.10
2019-01-15T03:52:47.150Z,77.20
2019-01-15T03:53:47.142Z,77.31
2019-01-15T03:54:47.130Z,77.20
2019-01-15T03:55:47.135Z,77.20
2019-01-15T03:56:47.110Z,76.99
2019-01-15T03:57:47.097Z,76.99
2019-01-15T03:58:47.081Z,76.89
2019-01-15T03:59:47.077Z,76.75
2019-01-15T04:00:47.103Z,76.75
2019-01-15T04:01:47.055Z,76.96
2019-01-15T04:02:47.049Z,76.75
2019-01-15T04:03:47.032Z,76.54
2019-01-15T04:04:47.021Z,76.72
2019-01-15T04:05:47.022Z,76.75
2019-01-15T04:06:47.017Z,76.65
2019-01-15T04:07:46.995Z,76.30
2019-01-15T04:08:47.074Z,76.30
2019-01-15T04:09:46.967Z,76.61
2019-01-15T04:10:46.970Z,76.51
2019-01-15T04:11:46.949Z,76.40
2019-01-15T04:12:46.956Z,76.20
2019-01-15T04:13:46.926Z,76.51
2019-01-15T04:14:46.915Z,76.20
2019-01-15T04:15:46.946Z,76.20
2019-01-15T04:16:46.894Z,76.30
2019-01-15T04:17:46.887Z,76.30
2019-01-15T04:18:46.874Z,76.30
2019-01-15T04:19:47.430Z,76.51
2019-01-15T04:20:46.856Z,76.61
2019-01-15T04:21:46.854Z,76.20
2019-01-15T04:22:46.834Z,76.61
2019-01-15T04:23:46.821Z,76.72
2019-01-15T04:24:46.809Z,77.03
2019-01-15T04:25:46.833Z,77.48
2019-01-15T04:26:46.806Z,77.17
2019-01-15T04:27:46.778Z,77.69
2019-01-15T04:28:46.767Z,77.55
2019-01-15T04:29:46.756Z,77.86
2019-01-15T04:30:46.755Z,77.75
2019-01-15T04:31:46.747Z,77.89
2019-01-15T04:32:46.722Z,78.17
2019-01-15T04:33:46.716Z,78.49
2019-01-15T04:34:46.704Z,78.49
2019-01-15T04:35:46.695Z,78.28
2019-01-15T04:36:46.693Z,78.28
2019-01-15T04:37:46.676Z,78.28
2019-01-15T04:38:46.661Z,78.49
2019-01-15T04:39:46.656Z,78.03
2019-01-15T04:40:46.642Z,78.03
2019-01-15T04:41:46.669Z,78.03
2019-01-15T04:42:46.620Z,77.93
2019-01-15T04:43:46.612Z,78.03
2019-01-15T04:44:46.599Z,78.03
2019-01-15T04:45:46.599Z,78.14
2019-01-15T04:46:46.594Z,78.24
2019-01-15T04:47:46.570Z,78.24
2019-01-15T04:48:46.557Z,78.10
2019-01-15T04:49:46.548Z,78.00
2019-01-15T04:50:46.574Z,78.00
2019-01-15T04:51:46.540Z,77.89
2019-01-15T04:52:46.520Z,78.31
2019-01-15T04:53:46.504Z,78.00
2019-01-15T04:54:46.509Z,77.37
2019-01-15T04:55:46.490Z,77.48
2019-01-15T04:56:46.600Z,77.27
2019-01-15T04:57:46.467Z,77.58
2019-01-15T04:58:46.469Z,77.58
2019-01-15T04:59:46.443Z,77.58
2019-01-15T05:00:46.467Z,77.58
2019-01-15T05:01:46.432Z,78.00
2019-01-15T05:02:46.409Z,78.00
2019-01-15T05:03:46.402Z,77.37
2019-01-15T05:04:46.399Z,77.69
2019-01-15T05:05:46.386Z,77.37
2019-01-15T05:06:46.387Z,77.37
2019-01-15T05:07:46.369Z,77.58
2019-01-15T05:08:46.348Z,78.31
2019-01-15T05:09:46.341Z,77.65
2019-01-15T05:10:46.329Z,77.44
2019-01-15T05:11:46.330Z,77.37
2019-01-15T05:12:46.309Z,78.00
2019-01-15T05:13:46.302Z,78.00
2019-01-15T05:14:46.287Z,78.10
2019-01-15T05:15:46.277Z,78.00
2019-01-15T05:16:46.289Z,78.62
2019-01-15T05:17:46.253Z,78.48
2019-01-15T05:18:46.249Z,78.48
2019-01-15T05:19:46.237Z,78.00
2019-01-15T05:20:46.230Z,77.96
2019-01-15T05:21:46.244Z,78.27
2019-01-15T05:22:46.205Z,77.96
2019-01-15T05:23:46.190Z,78.06
2019-01-15T05:24:46.178Z,77.86
2019-01-15T05:25:46.183Z,77.86
2019-01-15T05:26:46.174Z,78.27
2019-01-15T05:27:46.155Z,77.34
2019-01-15T05:28:46.141Z,77.65
2019-01-15T05:29:46.129Z,77.44
2019-01-15T05:30:46.118Z,77.72
2019-01-15T05:31:46.265Z,77.55
2019-01-15T05:32:46.108Z,77.44
2019-01-15T05:33:46.090Z,77.34
2019-01-15T05:34:46.075Z,77.03
2019-01-15T05:35:46.066Z,77.13
2019-01-15T05:36:46.055Z,76.99
2019-01-15T05:37:46.062Z,76.72
2019-01-15T05:38:46.034Z,76.57
2019-01-15T05:39:46.033Z,76.82
2019-01-15T05:40:46.014Z,76.57
2019-01-15T05:41:46.023Z,76.57
2019-01-15T05:42:46.008Z,76.61
2019-01-15T05:43:45.988Z,76.40
2019-01-15T05:44:46.065Z,76.57
2019-01-15T05:45:45.964Z,76.89
2019-01-15T05:46:45.949Z,76.68
2019-01-15T05:47:45.953Z,76.37
2019-01-15T05:48:45.944Z,76.37
2019-01-15T05:49:45.918Z,76.37
2019-01-15T05:50:45.907Z,76.57
2019-01-15T05:51:45.975Z,76.47
2019-01-15T05:52:45.900Z,76.57
2019-01-15T05:53:45.876Z,76.37
2019-01-15T05:54:45.869Z,76.57
2019-01-15T05:55:45.855Z,76.37
2019-01-15T05:56:45.850Z,76.16
2019-01-15T05:57:45.845Z,76.37
2019-01-15T05:58:45.825Z,76.37
2019-01-15T05:59:45.811Z,76.57
2019-01-15T06:00:45.816Z,76.23
2019-01-15T06:01:45.899Z,76.26
2019-01-15T06:02:45.821Z,76.26
2019-01-15T06:03:45.774Z,76.16
2019-01-15T06:04:45.834Z,76.06
2019-01-15T06:05:45.751Z,76.16
2019-01-15T06:06:45.745Z,76.06
2019-01-15T06:07:45.739Z,76.06
2019-01-15T06:08:45.727Z,76.16
2019-01-15T06:09:45.716Z,76.16
2019-01-15T06:10:45.710Z,75.74
2019-01-15T06:11:45.705Z,76.16
2019-01-15T06:12:45.698Z,75.85
2019-01-15T06:13:45.666Z,75.64
2019-01-15T06:14:45.657Z,75.71
2019-01-15T06:15:45.647Z,76.06
2019-01-15T06:16:45.643Z,75.81
2019-01-15T06:17:45.645Z,75.50
2019-01-15T06:18:45.612Z,75.19
2019-01-15T06:19:45.605Z,75.29
2019-01-15T06:20:45.595Z,75.74
2019-01-15T06:21:45.588Z,75.29
2019-01-15T06:22:45.605Z,75.32
2019-01-15T06:23:45.585Z,75.40
2019-01-15T06:24:45.558Z,74.88
2019-01-15T06:25:45.548Z,74.88
2019-01-15T06:26:45.538Z,74.77
2019-01-15T06:27:45.545Z,74.88
2019-01-15T06:28:45.511Z,74.77
2019-01-15T06:29:45.497Z,74.77
2019-01-15T06:30:45.516Z,74.67
2019-01-15T06:31:45.485Z,74.46
2019-01-15T06:32:45.514Z,74.77
2019-01-15T06:33:45.462Z,74.46
2019-01-15T06:34:45.453Z,74.46
2019-01-15T06:35:45.436Z,74.46
2019-01-15T06:36:45.440Z,74.57
2019-01-15T06:37:45.436Z,74.15
2019-01-15T06:38:45.411Z,74.57
2019-01-15T06:39:45.394Z,74.26
2019-01-15T06:40:45.404Z,74.36
2019-01-15T06:41:45.378Z,74.46
2019-01-15T06:42:45.430Z,74.26
2019-01-15T06:43:49.998Z,73.84
2019-01-15T06:44:45.342Z,74.26
2019-01-15T06:45:45.338Z,73.84
2019-01-15T06:46:45.337Z,74.22
2019-01-15T06:47:45.347Z,73.80
2019-01-15T06:48:45.302Z,74.05
2019-01-15T06:49:45.297Z,73.32
2019-01-15T06:50:45.282Z,73.94
2019-01-15T06:51:45.275Z,73.32
2019-01-15T06:52:45.302Z,73.70
2019-01-15T06:53:45.266Z,74.05
2019-01-15T06:54:45.251Z,73.70
2019-01-15T06:55:45.258Z,73.53
2019-01-15T06:56:45.230Z,73.43
2019-01-15T06:57:45.220Z,73.08
2019-01-15T06:58:45.212Z,73.53
2019-01-15T06:59:45.203Z,73.43
2019-01-15T07:00:45.178Z,73.28
2019-01-15T07:01:45.172Z,72.97
2019-01-15T07:02:45.155Z,72.80
2019-01-15T07:03:45.156Z,73.28
2019-01-15T07:04:45.130Z,73.39
2019-01-15T07:05:45.129Z,73.28
2019-01-15T07:06:45.110Z,73.74
2019-01-15T07:07:45.101Z,73.39
2019-01-15T07:08:45.164Z,73.28
2019-01-15T07:09:45.135Z,72.77
2019-01-15T07:10:45.070Z,73.08
2019-01-15T07:11:45.113Z,72.45
2019-01-15T07:12:45.053Z,72.35
2019-01-15T07:13:45.055Z,72.25
2019-01-15T07:14:45.033Z,72.87
2019-01-15T07:15:45.024Z,72.45
2019-01-15T07:16:45.011Z,73.70
2019-01-15T07:17:44.996Z,72.56
2019-01-15T07:18:44.996Z,72.25
2019-01-15T07:19:44.974Z,72.56
2019-01-15T07:20:44.963Z,72.25
2019-01-15T07:21:45.114Z,72.56
2019-01-15T07:22:44.949Z,72.77
2019-01-15T07:23:44.948Z,72.45
2019-01-15T07:24:44.921Z,73.18
2019-01-15T07:25:44.910Z,72.56
2019-01-15T07:26:44.934Z,72.35
2019-01-15T07:27:44.892Z,72.77
2019-01-15T07:28:44.914Z,72.66
2019-01-15T07:29:44.868Z,72.87
2019-01-15T07:30:44.859Z,73.08
2019-01-15T07:31:44.867Z,72.35
2019-01-15T07:32:44.837Z,72.97
2019-01-15T07:33:44.841Z,72.53
2019-01-15T07:34:44.815Z,72.63
2019-01-15T07:35:44.805Z,72.53
2019-01-15T07:36:44.844Z,73.18
2019-01-15T07:37:44.788Z,72.94
2019-01-15T07:38:44.791Z,72.56
2019-01-15T07:39:44.765Z,72.32
2019-01-15T07:40:44.756Z,72.56
2019-01-15T07:41:44.747Z,72.94
2019-01-15T07:42:44.731Z,72.94
2019-01-15T07:43:45.252Z,72.87
2019-01-15T07:44:44.725Z,72.94
2019-01-15T07:45:44.725Z,72.74
2019-01-15T07:46:44.692Z,72.87
2019-01-15T07:47:44.689Z,72.87
2019-01-15T07:48:44.685Z,72.84
2019-01-15T07:49:44.656Z,73.08
2019-01-15T07:50:44.647Z,73.91
2019-01-15T07:51:44.635Z,72.94
2019-01-15T07:52:44.626Z,72.74
2019-01-15T07:53:44.639Z,72.74
2019-01-15T07:54:44.604Z,72.32
2019-01-15T07:55:44.608Z,72.84
2019-01-15T07:56:44.585Z,72.84
2019-01-15T07:57:44.579Z,73.36
2019-01-15T07:58:44.585Z,72.53
2019-01-15T07:59:44.634Z,73.15
2019-01-15T08:00:44.541Z,73.05
2019-01-15T08:01:44.532Z,73.46
2019-01-15T08:02:44.519Z,72.32
2019-01-15T08:03:44.551Z,72.53
2019-01-15T08:04:44.510Z,72.91
2019-01-15T08:05:44.496Z,72.70
2019-01-15T08:06:44.479Z,73.15
2019-01-15T08:07:44.496Z,73.77
2019-01-15T08:08:44.454Z,72.91
2019-01-15T08:09:44.455Z,73.36
2019-01-15T08:10:44.434Z,73.57
2019-01-15T08:11:44.441Z,73.67
2019-01-15T08:12:44.459Z,73.15
2019-01-15T08:13:44.405Z,74.08
2019-01-15T08:14:44.415Z,74.50
2019-01-15T08:15:44.413Z,74.46
2019-01-15T08:16:44.372Z,73.84
2019-01-15T08:17:44.366Z,73.98
2019-01-15T08:18:44.382Z,73.98
2019-01-15T08:19:44.355Z,74.60
2019-01-15T08:20:44.340Z,74.71
2019-01-15T08:21:44.317Z,74.91
2019-01-15T08:22:44.311Z,74.91
2019-01-15T08:23:44.296Z,74.46
2019-01-15T08:24:44.305Z,74.81
2019-01-15T08:25:44.271Z,75.02
2019-01-15T08:26:44.260Z,74.67
2019-01-15T08:27:44.253Z,74.60
2019-01-15T08:28:44.263Z,74.88
2019-01-15T08:29:44.257Z,74.91
2019-01-15T08:30:44.240Z,74.67
2019-01-15T08:31:44.214Z,74.19
2019-01-15T08:32:44.197Z,74.98
2019-01-15T08:33:44.188Z,74.57
2019-01-15T08:34:44.202Z,74.81
2019-01-15T08:35:44.172Z,74.40
2019-01-15T08:36:44.158Z,74.91
2019-01-15T08:37:44.148Z,74.67
2019-01-15T08:38:44.138Z,75.23
2019-01-15T08:39:44.150Z,74.88
2019-01-15T08:40:44.113Z,74.98
2019-01-15T08:41:44.103Z,75.09
2019-01-15T08:42:44.115Z,75.50
2019-01-15T08:43:44.100Z,75.19
2019-01-15T08:44:44.083Z,74.88
2019-01-15T08:45:44.103Z,74.98
2019-01-15T08:46:44.102Z,75.29
2019-01-15T08:47:44.067Z,75.60
2019-01-15T08:48:44.046Z,75.71
2019-01-15T08:49:44.049Z,75.60
2019-01-15T08:50:44.005Z,75.60
2019-01-15T08:51:43.996Z,76.02
2019-01-15T08:52:43.988Z,75.92
2019-01-15T08:53:43.997Z,75.92
2019-01-15T08:54:43.984Z,76.02
2019-01-15T08:55:43.968Z,76.12
2019-01-15T08:56:43.946Z,75.81
2019-01-15T08:57:43.945Z,75.92
2019-01-15T08:58:43.928Z,75.92
2019-01-15T08:59:43.922Z,76.12
2019-01-15T09:00:43.903Z,76.02
2019-01-15T09:01:43.887Z,76.33
2019-01-15T09:02:43.876Z,76.12
2019-01-15T09:03:43.868Z,76.23
2019-01-15T09:04:43.869Z,76.43
2019-01-15T09:05:43.848Z,76.33
2019-01-15T09:06:43.839Z,76.54
2019-01-15T09:07:43.832Z,76.54
2019-01-15T09:08:43.819Z,76.85
2019-01-15T09:09:43.819Z,76.95
2019-01-15T09:10:43.795Z,77.06
2019-01-15T09:11:43.782Z,76.75
2019-01-15T09:12:43.773Z,77.06
2019-01-15T09:13:43.766Z,77.58
2019-01-15T09:14:43.773Z,77.99
2019-01-15T09:15:43.750Z,77.68
2019-01-15T09:16:43.743Z,77.37
2019-01-15T09:17:43.723Z,77.78
2019-01-15T09:18:43.711Z,78.30
2019-01-15T09:19:43.739Z,78.34
2019-01-15T09:20:43.701Z,77.99
2019-01-15T09:21:43.678Z,78.20
2019-01-15T09:22:43.677Z,78.20
2019-01-15T09:23:43.682Z,78.41
2019-01-15T09:24:43.650Z,78.51
2019-01-15T09:25:43.677Z,79.58
2019-01-15T09:26:43.623Z,80.00
2019-01-15T09:27:43.618Z,80.10
2019-01-15T09:28:43.609Z,80.21
2019-01-15T09:29:43.621Z,80.21
2019-01-15T09:30:43.596Z,80.62
2019-01-15T09:31:43.612Z,79.83
2019-01-15T09:32:43.594Z,80.10
2019-01-15T09:33:43.558Z,80.41
2019-01-15T09:34:43.551Z,80.04
2019-01-15T09:35:43.553Z,80.00
2019-01-15T09:36:43.527Z,80.31
2019-01-15T09:37:43.514Z,80.10
2019-01-15T09:38:43.506Z,79.69
2019-01-15T09:39:43.492Z,79.48
2019-01-15T09:40:43.510Z,79.79
2019-01-15T09:41:43.467Z,79.69
2019-01-15T09:42:43.454Z,79.90
2019-01-15T09:43:43.442Z,80.21
2019-01-15T09:44:43.432Z,79.48
2019-01-15T09:45:43.442Z,79.79
2019-01-15T09:46:43.412Z,80.00
2019-01-15T09:47:43.403Z,79.58
2019-01-15T09:48:43.393Z,79.38
2019-01-15T09:49:43.384Z,79.24
2019-01-15T09:50:43.404Z,79.34
2019-01-15T09:51:43.359Z,79.79
2019-01-15T09:52:43.351Z,79.96
2019-01-15T09:53:43.358Z,79.75
2019-01-15T09:54:43.327Z,79.55
2019-01-15T09:55:43.329Z,79.65
2019-01-15T09:56:43.303Z,79.55
2019-01-15T09:57:43.294Z,79.96
2019-01-15T09:58:43.283Z,79.96
2019-01-15T09:59:43.282Z,80.16
2019-01-15T10:00:43.304Z,79.55
2019-01-15T10:01:43.287Z,79.65
2019-01-15T10:02:43.243Z,79.96
2019-01-15T10:03:43.232Z,79.85
2019-01-15T10:04:43.222Z,79.82
2019-01-15T10:05:43.271Z,79.96
2019-01-15T10:06:43.226Z,80.23
2019-01-15T10:07:43.235Z,80.44
2019-01-15T10:08:43.208Z,80.47
2019-01-15T10:09:43.165Z,80.27
2019-01-15T10:10:43.169Z,79.75
2019-01-15T10:11:43.143Z,79.96
2019-01-15T10:12:43.136Z,80.44
2019-01-15T10:13:43.182Z,80.33
2019-01-15T10:14:43.113Z,80.13
2019-01-15T10:15:43.114Z,80.65
2019-01-15T10:16:43.093Z,80.65
2019-01-15T10:17:43.092Z,80.75
2019-01-15T10:18:43.090Z,81.41
2019-01-15T10:19:43.071Z,81.41
2019-01-15T10:20:43.062Z,81.48
2019-01-15T10:21:43.043Z,81.51
2019-01-15T10:22:43.031Z,81.72
2019-01-15T10:23:43.020Z,81.30
2019-01-15T10:24:43.015Z,81.51
2019-01-15T10:25:43.012Z,81.27
2019-01-15T10:26:42.986Z,81.68
2019-01-15T10:27:42.990Z,81.37
2019-01-15T10:28:43.011Z,81.37
2019-01-15T10:29:42.953Z,81.68
2019-01-15T10:30:42.975Z,81.54
2019-01-15T10:31:42.941Z,81.27
2019-01-15T10:32:42.929Z,81.34
2019-01-15T10:33:42.911Z,80.75
2019-01-15T10:34:42.898Z,80.54
2019-01-15T10:35:42.892Z,80.51
2019-01-15T10:36:42.903Z,80.30
2019-01-15T10:37:42.876Z,80.71
2019-01-15T10:38:42.868Z,80.40
2019-01-15T10:39:42.853Z,80.40
2019-01-15T10:40:42.859Z,80.51
2019-01-15T10:41:42.835Z,79.88
2019-01-15T10:42:42.811Z,79.99
2019-01-15T10:43:42.804Z,80.09
2019-01-15T10:44:48.649Z,79.99
2019-01-15T10:45:43.780Z,79.58
2019-01-15T10:46:42.791Z,79.33
2019-01-15T10:47:42.773Z,79.64
2019-01-15T10:48:42.747Z,79.64
2019-01-15T10:49:42.749Z,79.13
2019-01-15T10:50:42.728Z,79.44
2019-01-15T10:51:42.728Z,79.23
2019-01-15T10:52:42.707Z,79.30
2019-01-15T10:53:42.699Z,78.57
2019-01-15T10:54:42.691Z,77.95
2019-01-15T10:55:42.685Z,78.26
2019-01-15T10:56:42.681Z,78.05
2019-01-15T10:57:42.653Z,78.26
2019-01-15T10:58:42.741Z,78.26
2019-01-15T10:59:42.638Z,78.05
2019-01-15T11:00:42.625Z,77.74
2019-01-15T11:01:42.626Z,77.64
2019-01-15T11:02:42.608Z,77.95
2019-01-15T11:03:42.589Z,78.26
2019-01-15T11:04:42.581Z,77.70
2019-01-15T11:05:42.572Z,78.02
2019-01-15T11:06:42.571Z,77.53
2019-01-15T11:07:42.662Z,77.50
2019-01-15T11:08:42.541Z,77.39
2019-01-15T11:09:42.529Z,77.19
2019-01-15T11:10:42.515Z,77.50
2019-01-15T11:11:42.529Z,77.70
2019-01-15T11:12:42.495Z,77.29
2019-01-15T11:13:42.488Z,77.81
2019-01-15T11:14:42.474Z,77.19
2019-01-15T11:15:43.394Z,77.60
2019-01-15T11:16:42.469Z,77.50
2019-01-15T11:17:42.464Z,78.02
2019-01-15T11:18:42.430Z,77.60
2019-01-15T11:19:42.434Z,77.81
2019-01-15T11:20:42.415Z,77.39
2019-01-15T11:21:42.413Z,77.09
2019-01-15T11:22:42.440Z,77.09
2019-01-15T11:23:42.382Z,76.88
2019-01-15T11:24:42.442Z,77.39
2019-01-15T11:25:42.358Z,78.02
2019-01-15T11:26:42.361Z,77.60
2019-01-15T11:27:42.336Z,78.02
2019-01-15T11:28:42.331Z,77.91
2019-01-15T11:29:42.320Z,78.02
2019-01-15T11:30:42.316Z,78.26
2019-01-15T11:31:42.311Z,78.36
2019-01-15T11:32:42.287Z,78.05
2019-01-15T11:33:42.271Z,78.67
2019-01-15T11:34:42.274Z,78.26
2019-01-15T11:35:42.265Z,79.40
2019-01-15T11:36:42.280Z,78.47
2019-01-15T11:37:42.237Z,78.57
2019-01-15T11:38:42.224Z,79.19
2019-01-15T11:39:42.208Z,79.30
2019-01-15T11:40:42.216Z,79.81
2019-01-15T11:41:42.202Z,80.22
2019-01-15T11:42:42.203Z,80.43
2019-01-15T11:43:42.181Z,80.64
2019-01-15T11:44:42.171Z,81.47
2019-01-15T11:45:42.154Z,81.47
2019-01-15T11:46:42.147Z,81.16
2019-01-15T11:47:42.139Z,81.37
2019-01-15T11:48:42.131Z,81.61
2019-01-15T11:49:42.106Z,81.68
2019-01-15T11:50:42.099Z,81.51
2019-01-15T11:51:42.082Z,81.82
2019-01-15T11:52:42.085Z,82.13
2019-01-15T11:53:42.064Z,82.44
2019-01-15T11:54:42.065Z,82.95
2019-01-15T11:55:42.042Z,83.26
2019-01-15T11:56:42.030Z,83.06
2019-01-15T11:57:42.034Z,82.86
2019-01-15T11:58:42.016Z,83.26
2019-01-15T11:59:42.082Z,83.37
2019-01-15T12:00:41.998Z,83.26
2019-01-15T12:01:41.979Z,83.99
2019-01-15T12:02:41.984Z,83.37
2019-01-15T12:03:41.958Z,83.23
2019-01-15T12:04:41.970Z,83.47
2019-01-15T12:05:41.936Z,83.16
2019-01-15T12:06:41.924Z,83.33
2019-01-15T12:07:41.928Z,83.12
2019-01-15T12:08:41.905Z,83.54
2019-01-15T12:09:41.895Z,83.12
2019-01-15T12:10:41.895Z,82.81
2019-01-15T12:11:41.872Z,82.92
2019-01-15T12:12:41.874Z,83.12
2019-01-15T12:13:41.852Z,83.02
2019-01-15T12:14:41.844Z,82.81
2019-01-15T12:15:41.835Z,82.81
2019-01-15T12:16:41.831Z,82.81
2019-01-15T12:17:41.829Z,82.57
2019-01-15T12:18:41.799Z,82.67
2019-01-15T12:19:41.793Z,82.46
2019-01-15T12:20:41.780Z,82.36
2019-01-15T12:21:41.765Z,82.46
2019-01-15T12:22:41.790Z,82.26
2019-01-15T12:23:41.751Z,82.36
2019-01-15T12:24:41.738Z,82.05
2019-01-15T12:25:41.724Z,81.95
2019-01-15T12:26:41.718Z,81.43
2019-01-15T12:27:41.736Z,81.70
2019-01-15T12:28:41.694Z,81.43
2019-01-15T12:29:41.688Z,81.54
2019-01-15T12:30:41.673Z,81.33
2019-01-15T12:31:41.662Z,81.43
2019-01-15T12:32:41.651Z,81.43
2019-01-15T12:33:41.668Z,81.19
2019-01-15T12:34:41.631Z,81.23
2019-01-15T12:35:41.627Z,81.60
2019-01-15T12:36:41.639Z,81.84
2019-01-15T12:37:41.596Z,82.05
2019-01-15T12:38:41.600Z,82.46
2019-01-15T12:39:41.654Z,81.95
2019-01-15T12:40:41.572Z,82.46
2019-01-15T12:41:41.566Z,82.36
2019-01-15T12:42:41.552Z,82.98
2019-01-15T12:43:41.552Z,83.05
2019-01-15T12:44:41.525Z,82.98
2019-01-15T12:45:41.532Z,83.40
2019-01-15T12:46:41.502Z,83.19
2019-01-15T12:47:41.493Z,83.46
2019-01-15T12:48:41.496Z,83.81
2019-01-15T12:49:41.475Z,84.12
2019-01-15T12:50:41.460Z,84.64
2019-01-15T12:51:41.454Z,84.22
2019-01-15T12:52:41.443Z,83.91